createdAt,value
2019-05-30T00:00:12.431Z,2.00
2019-05-30T00:02:31.564Z,1.87
2019-05-30T00:05:00.750Z,1.83
2019-05-30T00:07:30.066Z,2.20
2019-05-30T00:10:00.469Z,1.80
2019-05-30T00:12:29.863Z,1.97
2019-05-30T00:14:59.155Z,2.10
2019-05-30T00:17:28.391Z,1.83
2019-05-30T00:19:58.760Z,1.90
2019-05-30T00:22:28.146Z,1.70
2019-05-30T00:24:57.907Z,2.00
2019-05-30T00:27:27.423Z,2.37
2019-05-30T00:29:57.180Z,2.17
2019-05-30T00:32:26.428Z,2.50
2019-05-30T00:34:55.704Z,2.37
2019-05-30T00:37:25.131Z,1.90
2019-05-30T00:39:55.701Z,1.87
2019-05-30T00:42:25.078Z,2.00
2019-05-30T00:44:54.258Z,2.00
2019-05-30T00:47:23.419Z,1.87
2019-05-30T00:49:52.680Z,2.47
2019-05-30T00:52:21.897Z,2.57
2019-05-30T00:54:51.163Z,2.20
2019-05-30T00:57:20.392Z,2.50
2019-05-30T00:59:49.767Z,2.73
2019-05-30T01:02:19.022Z,2.60
2019-05-30T01:04:48.266Z,2.33
2019-05-30T01:07:17.526Z,2.40
2019-05-30T01:09:46.866Z,2.33
2019-05-30T01:12:16.103Z,2.30
2019-05-30T01:14:45.486Z,2.47
2019-05-30T01:17:14.728Z,2.23
2019-05-30T01:19:43.990Z,2.47
2019-05-30T01:22:13.346Z,2.23
2019-05-30T01:24:42.949Z,2.50
2019-05-30T01:27:12.118Z,2.20
2019-05-30T01:29:41.374Z,2.27
2019-05-30T01:32:29.420Z,2.30
2019-05-30T01:34:59.863Z,2.60
2019-05-30T01:37:29.328Z,2.40
2019-05-30T01:39:59.653Z,2.67
2019-05-30T01:42:29.123Z,2.53
2019-05-30T01:44:58.386Z,2.13
2019-05-30T01:47:27.655Z,2.77
2019-05-30T01:49:58.144Z,2.57
2019-05-30T01:52:27.620Z,2.97
2019-05-30T01:54:56.951Z,2.37
2019-05-30T01:57:26.214Z,2.70
2019-05-30T01:59:55.489Z,2.37
2019-05-30T02:02:24.714Z,3.10
2019-05-30T02:04:54.044Z,2.80
2019-05-30T02:07:23.348Z,2.80
2019-05-30T02:09:52.677Z,2.70
2019-05-30T02:12:21.940Z,2.43
2019-05-30T02:14:51.303Z,2.73
2019-05-30T02:17:20.640Z,2.50
2019-05-30T02:19:49.907Z,2.43
2019-05-30T02:22:19.107Z,2.80
2019-05-30T02:24:48.390Z,2.80
2019-05-30T02:27:17.819Z,2.67
2019-05-30T02:29:47.222Z,2.90
2019-05-30T02:32:16.388Z,3.07
2019-05-30T02:34:45.591Z,2.60
2019-05-30T02:37:14.919Z,2.67
2019-05-30T02:39:44.248Z,2.80
2019-05-30T02:42:13.722Z,3.03
2019-05-30T02:44:43.033Z,2.73
2019-05-30T02:47:12.301Z,3.00
2019-05-30T02:49:41.531Z,3.57
2019-05-30T02:52:13.007Z,3.53
2019-05-30T02:54:41.954Z,3.40
2019-05-30T02:57:12.606Z,3.57
2019-05-30T02:59:42.020Z,3.30
2019-05-30T03:02:15.163Z,3.37
2019-05-30T03:04:42.253Z,3.60
2019-05-30T03:07:13.020Z,3.07
2019-05-30T03:09:43.046Z,3.17
2019-05-30T03:12:13.432Z,2.93
2019-05-30T03:14:42.769Z,3.30
2019-05-30T03:17:14.328Z,3.17
2019-05-30T03:19:42.939Z,3.13
2019-05-30T03:22:14.005Z,3.13
2019-05-30T03:24:43.365Z,2.90
2019-05-30T03:27:14.097Z,3.07
2019-05-30T03:29:43.681Z,3.23
2019-05-30T03:32:57.530Z,3.50
2019-05-30T03:34:44.414Z,3.50
2019-05-30T03:37:22.538Z,3.23
2019-05-30T03:39:44.819Z,3.53
2019-05-30T03:42:15.977Z,3.33
2019-05-30T03:44:45.228Z,3.87
2019-05-30T03:47:16.493Z,3.33
2019-05-30T03:49:48.184Z,4.17
2019-05-30T03:52:19.383Z,3.57
2019-05-30T03:54:50.069Z,4.03
2019-05-30T03:57:25.446Z,3.83
2019-05-30T04:00:03.003Z,3.83
2019-05-30T04:02:59.235Z,4.00
2019-05-30T04:05:36.132Z,3.27
2019-05-30T04:08:10.008Z,3.90
2019-05-30T04:10:42.682Z,4.00
2019-05-30T04:13:39.507Z,3.83
2019-05-30T04:16:08.761Z,4.00
2019-05-30T04:18:38.073Z,3.53
2019-05-30T04:21:08.565Z,4.10
2019-05-30T04:23:38.312Z,3.60
2019-05-30T04:26:09.256Z,3.90
2019-05-30T04:28:38.506Z,4.50
2019-05-30T04:31:08.082Z,4.03
2019-05-30T04:33:37.449Z,4.20
2019-05-30T04:36:08.264Z,4.27
2019-05-30T04:38:37.628Z,4.23
2019-05-30T04:41:06.794Z,4.40
2019-05-30T04:43:36.059Z,4.53
2019-05-30T04:46:05.470Z,4.10
2019-05-30T04:48:34.732Z,3.97
2019-05-30T04:51:03.953Z,4.03
2019-05-30T04:53:33.246Z,3.73
2019-05-30T04:56:02.510Z,3.90
2019-05-30T04:58:31.769Z,3.83
2019-05-30T05:01:01.130Z,4.07
2019-05-30T05:03:45.309Z,3.73
2019-05-30T05:06:01.407Z,2.83
2019-05-30T05:08:30.737Z,3.90
2019-05-30T05:11:00.048Z,4.53
2019-05-30T05:13:29.330Z,4.23
2019-05-30T05:15:58.544Z,4.37
2019-05-30T05:18:27.806Z,4.60
2019-05-30T05:20:56.976Z,4.17
2019-05-30T05:23:45.332Z,4.37
2019-05-30T05:26:15.430Z,4.07
2019-05-30T05:28:44.929Z,4.00
2019-05-30T05:31:14.480Z,3.67
2019-05-30T05:33:56.305Z,4.10
2019-05-30T05:36:14.914Z,3.53
2019-05-30T05:38:44.224Z,4.27
2019-05-30T05:41:13.433Z,3.93
2019-05-30T05:43:42.723Z,3.87
2019-05-30T05:46:12.000Z,3.87
2019-05-30T05:48:41.285Z,4.17
2019-05-30T05:51:10.515Z,4.20
2019-05-30T05:53:39.699Z,4.07
2019-05-30T05:56:08.844Z,3.90
2019-05-30T05:58:38.007Z,4.00
2019-05-30T06:01:07.252Z,3.73
2019-05-30T06:03:36.501Z,4.20
2019-05-30T06:06:05.715Z,3.53
2019-05-30T06:08:34.967Z,3.73
2019-05-30T06:11:04.212Z,4.20
2019-05-30T06:13:33.551Z,4.07
2019-05-30T06:16:02.790Z,3.93
2019-05-30T06:18:32.058Z,3.93
2019-05-30T06:21:01.368Z,3.87
2019-05-30T06:23:30.638Z,3.67
2019-05-30T06:25:59.897Z,4.00
2019-05-30T06:28:29.198Z,3.63
2019-05-30T06:30:59.179Z,3.40
2019-05-30T06:33:29.139Z,3.27
2019-05-30T06:35:58.515Z,3.17
2019-05-30T06:38:27.836Z,3.20
2019-05-30T06:40:57.096Z,3.03
2019-05-30T06:43:26.476Z,3.40
2019-05-30T06:45:55.659Z,3.20
2019-05-30T06:48:24.982Z,3.50
2019-05-30T06:50:54.179Z,3.80
2019-05-30T06:53:23.440Z,3.23
2019-05-30T06:55:52.700Z,3.63
2019-05-30T06:58:39.176Z,3.20
2019-05-30T07:00:52.847Z,3.33
2019-05-30T07:03:22.169Z,3.03
2019-05-30T07:05:52.043Z,3.63
2019-05-30T07:08:22.661Z,3.50
2019-05-30T07:10:52.092Z,3.70
2019-05-30T07:13:21.443Z,3.40
2019-05-30T07:15:50.790Z,3.50
2019-05-30T07:18:20.151Z,3.13
2019-05-30T07:20:49.412Z,3.53
2019-05-30T07:23:18.680Z,3.33
2019-05-30T07:25:48.029Z,2.97
2019-05-30T07:28:17.369Z,3.30
2019-05-30T07:30:46.629Z,3.17
2019-05-30T07:33:15.900Z,3.10
2019-05-30T07:35:45.094Z,3.13
2019-05-30T07:38:14.455Z,3.60
2019-05-30T07:40:43.783Z,3.57
2019-05-30T07:43:13.048Z,3.50
2019-05-30T07:45:46.777Z,3.40
2019-05-30T07:48:13.338Z,3.60
2019-05-30T07:50:42.576Z,3.90
2019-05-30T07:53:11.896Z,3.90
2019-05-30T07:55:41.204Z,3.70
2019-05-30T07:58:10.479Z,3.90
2019-05-30T08:00:39.812Z,3.33
2019-05-30T08:03:09.150Z,4.10
2019-05-30T08:05:38.973Z,4.13
2019-05-30T08:08:08.222Z,3.83
2019-05-30T08:10:38.150Z,3.93
2019-05-30T08:13:07.819Z,4.10
2019-05-30T08:15:43.807Z,9.10
2019-05-30T08:18:08.049Z,5.13
2019-05-30T08:20:38.040Z,3.60
2019-05-30T08:23:09.829Z,5.10
2019-05-30T08:25:38.562Z,3.77
2019-05-30T08:28:07.803Z,3.83
2019-05-30T08:30:37.021Z,3.93
2019-05-30T08:33:06.201Z,3.60
2019-05-30T08:35:43.569Z,4.17
2019-05-30T08:38:06.423Z,4.00
2019-05-30T08:40:35.699Z,4.20
2019-05-30T08:43:04.972Z,4.43
2019-05-30T08:45:34.231Z,3.80
2019-05-30T08:48:03.713Z,3.87
2019-05-30T08:50:34.135Z,3.83
2019-05-30T08:53:03.480Z,4.50
2019-05-30T08:55:32.786Z,4.20
2019-05-30T08:58:02.132Z,4.17
2019-05-30T09:00:31.639Z,4.40
2019-05-30T09:03:01.015Z,3.77
2019-05-30T09:05:30.289Z,3.50
2019-05-30T09:07:59.605Z,3.60
2019-05-30T09:10:29.247Z,3.83
2019-05-30T09:12:59.281Z,3.90
2019-05-30T09:15:29.358Z,4.07
2019-05-30T09:17:58.541Z,4.10
2019-05-30T09:20:30.755Z,3.67
2019-05-30T09:22:58.787Z,3.63
2019-05-30T09:25:27.939Z,3.50
2019-05-30T09:27:57.229Z,3.93
2019-05-30T09:30:26.573Z,3.73
2019-05-30T09:32:55.949Z,6.90
2019-05-30T09:35:25.224Z,3.73
2019-05-30T09:37:54.497Z,3.83
2019-05-30T09:40:23.993Z,3.00
2019-05-30T09:42:53.372Z,3.43
2019-05-30T09:45:24.459Z,3.77
2019-05-30T09:47:53.738Z,3.40
2019-05-30T09:50:23.043Z,3.20
2019-05-30T09:52:52.424Z,3.17
2019-05-30T09:55:22.099Z,3.30
2019-05-30T09:57:51.797Z,3.20
2019-05-30T10:00:22.875Z,3.20
2019-05-30T10:02:52.632Z,2.90
2019-05-30T10:05:24.564Z,3.40
2019-05-30T10:07:53.239Z,3.23
2019-05-30T10:10:22.799Z,2.57
2019-05-30T10:12:52.666Z,2.63
2019-05-30T10:15:22.476Z,2.70
2019-05-30T10:17:52.946Z,2.57
2019-05-30T10:20:22.856Z,2.53
2019-05-30T10:22:53.575Z,3.03
2019-05-30T10:25:23.367Z,2.43
2019-05-30T10:27:54.633Z,2.50
2019-05-30T10:30:24.415Z,2.60
2019-05-30T10:32:53.961Z,2.73
2019-05-30T10:35:23.259Z,2.27
2019-05-30T10:37:52.832Z,2.70
2019-05-30T10:40:22.932Z,2.93
2019-05-30T10:42:53.252Z,2.30
2019-05-30T10:45:23.433Z,2.33
2019-05-30T10:47:53.655Z,2.20
2019-05-30T10:50:23.099Z,2.20
2019-05-30T10:52:53.479Z,2.20
2019-05-30T10:55:23.428Z,2.20
2019-05-30T10:57:56.294Z,2.60
2019-05-30T11:00:33.061Z,2.40
2019-05-30T11:03:02.367Z,2.03
2019-05-30T11:05:31.737Z,2.30
2019-05-30T11:08:06.609Z,2.10
2019-05-30T11:10:39.932Z,2.00
2019-05-30T11:13:11.842Z,1.83
2019-05-30T11:15:41.695Z,1.70
2019-05-30T11:18:11.119Z,1.50
2019-05-30T11:20:40.734Z,1.80
2019-05-30T11:23:10.936Z,1.60
2019-05-30T11:25:40.289Z,1.40
2019-05-30T11:28:09.684Z,1.60
2019-05-30T11:30:38.951Z,1.50
2019-05-30T11:33:08.294Z,1.47
2019-05-30T11:35:37.671Z,1.50
2019-05-30T11:38:06.977Z,1.37
2019-05-30T11:40:36.473Z,1.43
2019-05-30T11:43:05.849Z,1.50
2019-05-30T11:45:35.212Z,1.40
2019-05-30T11:48:04.568Z,1.27
2019-05-30T11:50:34.260Z,1.40
2019-05-30T11:53:03.502Z,1.50
2019-05-30T11:55:33.034Z,1.27
2019-05-30T11:58:02.384Z,1.53
2019-05-30T12:00:31.934Z,1.50
2019-05-30T12:03:01.181Z,1.20
2019-05-30T12:05:30.598Z,1.73
2019-05-30T12:08:00.980Z,1.40
2019-05-30T12:10:31.624Z,1.20
2019-05-30T12:13:01.710Z,1.60
2019-05-30T12:15:31.103Z,1.50
2019-05-30T12:18:02.244Z,1.60
2019-05-30T12:20:31.465Z,1.53
2019-05-30T12:23:02.128Z,1.40
2019-05-30T12:25:31.713Z,1.60
2019-05-30T12:28:03.698Z,1.50
2019-05-30T12:30:32.181Z,1.50
2019-05-30T12:33:02.593Z,1.30
2019-05-30T12:35:32.120Z,1.40
2019-05-30T12:38:05.042Z,1.47
2019-05-30T12:40:32.543Z,1.47
2019-05-30T12:43:03.679Z,1.60
2019-05-30T12:45:32.896Z,1.30
2019-05-30T12:48:04.157Z,1.40
2019-05-30T12:50:33.348Z,1.43
2019-05-30T12:53:02.544Z,1.40
2019-05-30T12:55:31.823Z,1.60
2019-05-30T12:58:01.106Z,1.60
2019-05-30T13:00:31.188Z,1.50
2019-05-30T13:03:00.866Z,1.40
2019-05-30T13:05:30.283Z,1.50
2019-05-30T13:08:14.325Z,1.50
2019-05-30T13:10:30.486Z,1.70
2019-05-30T13:12:59.726Z,1.50
2019-05-30T13:15:29.069Z,1.30
2019-05-30T13:17:58.832Z,1.60
2019-05-30T13:20:28.323Z,1.30
2019-05-30T13:22:58.465Z,1.53
2019-05-30T13:25:27.973Z,3.40
2019-05-30T13:27:57.738Z,1.70
2019-05-30T13:30:27.219Z,1.80
2019-05-30T13:32:56.624Z,1.43
2019-05-30T13:35:25.939Z,1.30
2019-05-30T13:37:55.136Z,1.80
2019-05-30T13:40:25.748Z,1.40
2019-05-30T13:42:55.273Z,1.77
2019-05-30T13:45:24.492Z,1.90
2019-05-30T13:47:53.817Z,2.07
2019-05-30T13:50:23.143Z,1.53
2019-05-30T13:52:52.463Z,1.87
2019-05-30T13:55:21.823Z,1.60
2019-05-30T13:57:52.031Z,1.80
2019-05-30T14:00:22.820Z,1.97
2019-05-30T14:02:52.057Z,1.70
2019-05-30T14:05:21.358Z,1.83
2019-05-30T14:07:50.671Z,1.70
2019-05-30T14:10:21.751Z,1.70
2019-05-30T14:12:51.021Z,1.80
2019-05-30T14:15:20.369Z,2.00
2019-05-30T14:17:49.643Z,1.83
2019-05-30T14:20:19.390Z,1.50
2019-05-30T14:22:48.654Z,1.40
2019-05-30T14:25:17.924Z,1.80
2019-05-30T14:27:47.264Z,1.80
2019-05-30T14:30:17.388Z,1.57
2019-05-30T14:32:47.059Z,1.80
2019-05-30T14:35:16.404Z,1.90
2019-05-30T14:37:45.870Z,1.63
2019-05-30T14:40:15.939Z,1.80
2019-05-30T14:42:45.235Z,1.60
2019-05-30T14:45:16.788Z,1.70
2019-05-30T14:47:46.269Z,1.77
2019-05-30T14:50:17.566Z,1.80
2019-05-30T14:52:48.082Z,1.83
2019-05-30T14:55:20.200Z,1.63
2019-05-30T14:57:49.475Z,1.77
2019-05-30T15:00:18.937Z,1.80
2019-05-30T15:02:48.224Z,1.90
2019-05-30T15:05:17.793Z,1.80
2019-05-30T15:07:46.993Z,1.80
2019-05-30T15:10:17.024Z,1.40
2019-05-30T15:12:46.659Z,1.60
2019-05-30T15:15:18.670Z,1.50
2019-05-30T15:17:47.891Z,1.37
2019-05-30T15:20:17.823Z,1.40
2019-05-30T15:22:47.417Z,1.10
2019-05-30T15:25:18.042Z,0.90
2019-05-30T15:27:47.684Z,1.20
2019-05-30T15:30:17.108Z,1.00
2019-05-30T15:32:46.405Z,1.07
2019-05-30T15:35:19.071Z,1.17
2019-05-30T15:37:47.090Z,1.00
2019-05-30T15:40:17.219Z,1.20
2019-05-30T15:42:46.622Z,1.17
2019-05-30T15:45:18.209Z,0.97
2019-05-30T15:47:47.670Z,1.10
2019-05-30T15:50:18.816Z,1.03
2019-05-30T15:52:48.333Z,1.30
2019-05-30T15:55:19.644Z,0.93
2019-05-30T15:57:50.106Z,0.90
2019-05-30T16:00:21.313Z,1.07
2019-05-30T16:02:50.573Z,0.90
2019-05-30T16:05:20.569Z,1.20
2019-05-30T16:07:50.030Z,1.07
2019-05-30T16:10:21.102Z,1.10
2019-05-30T16:12:50.484Z,1.20
2019-05-30T16:15:19.835Z,1.10
2019-05-30T16:17:49.150Z,1.30
2019-05-30T16:20:18.609Z,1.10
2019-05-30T16:22:47.865Z,1.30
2019-05-30T16:25:17.752Z,1.47
2019-05-30T16:27:47.214Z,1.40
2019-05-30T16:30:19.660Z,1.20
2019-05-30T16:32:47.860Z,1.47
2019-05-30T16:35:18.186Z,1.00
2019-05-30T16:37:47.635Z,1.20
2019-05-30T16:40:16.843Z,1.30
2019-05-30T16:42:46.035Z,1.83
2019-05-30T16:45:20.375Z,1.20
2019-05-30T16:47:49.298Z,1.00
2019-05-30T16:50:22.652Z,1.23
2019-05-30T16:52:52.142Z,1.17
2019-05-30T16:55:21.542Z,1.03
2019-05-30T16:57:50.860Z,1.40
2019-05-30T17:00:21.771Z,1.20
2019-05-30T17:02:51.287Z,1.33
2019-05-30T17:05:20.716Z,1.10
2019-05-30T17:07:49.904Z,1.17
2019-05-30T17:10:27.510Z,1.40
2019-05-30T17:12:50.279Z,1.10
2019-05-30T17:15:20.002Z,1.97
2019-05-30T17:17:49.404Z,1.43
2019-05-30T17:20:18.873Z,1.00
2019-05-30T17:22:48.174Z,2.00
2019-05-30T17:25:18.962Z,1.40
2019-05-30T17:27:48.597Z,1.53
2019-05-30T17:30:19.512Z,1.60
2019-05-30T17:32:49.038Z,1.47
2019-05-30T17:35:18.533Z,1.30
2019-05-30T17:37:48.012Z,1.13
2019-05-30T17:40:18.562Z,1.10
2019-05-30T17:42:48.247Z,1.10
2019-05-30T17:45:19.024Z,1.37
2019-05-30T17:47:58.157Z,1.30
2019-05-30T17:50:19.835Z,1.10
2019-05-30T17:52:49.344Z,1.20
2019-05-30T17:55:20.228Z,1.20
2019-05-30T17:57:49.654Z,1.30
2019-05-30T18:00:20.392Z,1.30
2019-05-30T18:02:49.863Z,1.20
2019-05-30T18:05:20.347Z,1.20
2019-05-30T18:07:49.825Z,1.30
2019-05-30T18:10:19.322Z,1.30
2019-05-30T18:12:49.340Z,1.40
2019-05-30T18:15:18.959Z,1.30
2019-05-30T18:17:48.333Z,1.63
2019-05-30T18:20:18.254Z,1.30
2019-05-30T18:22:47.646Z,1.40
2019-05-30T18:25:17.216Z,1.50
2019-05-30T18:27:46.452Z,1.70
2019-05-30T18:30:16.959Z,2.00
2019-05-30T18:32:46.185Z,1.37
2019-05-30T18:35:15.475Z,1.40
2019-05-30T18:37:44.732Z,1.33
2019-05-30T18:40:16.590Z,1.20
2019-05-30T18:42:45.887Z,1.30
2019-05-30T18:45:19.835Z,1.40
2019-05-30T18:47:49.172Z,2.17
2019-05-30T18:50:18.412Z,31.03
2019-05-30T18:52:47.773Z,12.33
2019-05-30T18:55:17.068Z,12.57
2019-05-30T18:57:46.369Z,7.10
2019-05-30T19:00:17.472Z,6.43
2019-05-30T19:02:46.819Z,2.53
2019-05-30T19:05:16.130Z,1.80
2019-05-30T19:07:45.429Z,1.57
2019-05-30T19:10:15.131Z,1.60
2019-05-30T19:12:44.387Z,1.43
2019-05-30T19:15:13.760Z,1.60
2019-05-30T19:17:43.155Z,1.40
2019-05-30T19:20:12.838Z,1.47
2019-05-30T19:22:42.088Z,1.50
2019-05-30T19:25:12.597Z,1.40
2019-05-30T19:27:41.873Z,1.40
2019-05-30T19:30:12.263Z,1.50
2019-05-30T19:32:41.569Z,1.40
2019-05-30T19:35:10.919Z,1.43
2019-05-30T19:37:40.224Z,1.40
2019-05-30T19:40:09.715Z,1.50
2019-05-30T19:42:39.007Z,1.40
2019-05-30T19:45:09.096Z,1.70
2019-05-30T19:47:38.881Z,1.87
2019-05-30T19:50:09.277Z,1.60
2019-05-30T19:52:39.106Z,1.83
2019-05-30T19:55:10.095Z,1.30
2019-05-30T19:57:39.902Z,1.60
2019-05-30T20:00:10.304Z,1.77
2019-05-30T20:02:40.553Z,1.40
2019-05-30T20:05:10.036Z,1.77
2019-05-30T20:07:39.434Z,1.80
2019-05-30T20:10:08.953Z,1.40
2019-05-30T20:12:39.066Z,1.20
2019-05-30T20:15:09.637Z,1.50
2019-05-30T20:17:39.781Z,1.40
2019-05-30T20:20:09.650Z,1.57
2019-05-30T20:22:40.088Z,1.47
2019-05-30T20:25:11.020Z,1.47
2019-05-30T20:27:40.885Z,1.50
2019-05-30T20:30:10.786Z,1.50
2019-05-30T20:32:40.910Z,1.50
2019-05-30T20:35:10.600Z,1.40
2019-05-30T20:37:40.794Z,1.30
2019-05-30T20:40:10.567Z,1.50
2019-05-30T20:42:40.975Z,1.50
2019-05-30T20:45:11.233Z,1.60
2019-05-30T20:47:42.435Z,1.60
2019-05-30T20:50:15.106Z,1.60
2019-05-30T20:52:45.644Z,1.50
2019-05-30T20:55:16.651Z,1.40
2019-05-30T20:57:46.833Z,1.70
2019-05-30T21:00:17.856Z,1.60
2019-05-30T21:02:47.688Z,1.30
2019-05-30T21:05:17.230Z,1.43
2019-05-30T21:07:48.435Z,1.30
2019-05-30T21:10:17.871Z,1.60
2019-05-30T21:12:49.418Z,1.50
2019-05-30T21:15:19.312Z,1.83
2019-05-30T21:17:48.890Z,1.67
2019-05-30T21:20:18.248Z,1.87
2019-05-30T21:22:47.451Z,1.47
2019-05-30T21:25:16.689Z,1.37
2019-05-30T21:27:47.303Z,1.63
2019-05-30T21:30:17.273Z,1.40
2019-05-30T21:32:48.375Z,1.60
2019-05-30T21:35:17.693Z,1.60
2019-05-30T21:37:47.920Z,1.60
2019-05-30T21:40:17.865Z,1.43
2019-05-30T21:43:01.395Z,1.60
2019-05-30T21:45:18.619Z,1.60
2019-05-30T21:47:48.840Z,1.50
2019-05-30T21:50:18.650Z,1.60
2019-05-30T21:52:48.062Z,1.60
2019-05-30T21:55:17.452Z,1.70
2019-05-30T21:57:48.005Z,1.80
2019-05-30T22:00:20.994Z,1.63
2019-05-30T22:02:54.219Z,1.53
2019-05-30T22:05:23.699Z,1.40
2019-05-30T22:07:52.989Z,1.40
2019-05-30T22:10:22.291Z,1.60
2019-05-30T22:12:51.871Z,1.87
2019-05-30T22:15:21.259Z,1.50
2019-05-30T22:17:50.503Z,1.27
2019-05-30T22:20:19.858Z,1.93
2019-05-30T22:22:50.144Z,1.80
2019-05-30T22:25:19.660Z,1.80
2019-05-30T22:27:49.017Z,1.53
2019-05-30T22:30:18.619Z,1.67
2019-05-30T22:32:48.693Z,1.73
2019-05-30T22:35:18.025Z,1.70
2019-05-30T22:37:47.267Z,1.70
2019-05-30T22:40:16.787Z,1.50
2019-05-30T22:42:46.292Z,1.93
2019-05-30T22:45:15.801Z,1.77
2019-05-30T22:47:46.268Z,1.77
2019-05-30T22:50:15.660Z,1.90
2019-05-30T22:52:45.187Z,1.80
2019-05-30T22:55:14.549Z,1.83
2019-05-30T22:57:44.376Z,1.60
2019-05-30T23:00:13.775Z,1.80
2019-05-30T23:02:43.079Z,1.90
2019-05-30T23:05:12.518Z,1.80
2019-05-30T23:07:41.779Z,1.90
2019-05-30T23:10:11.182Z,1.80
2019-05-30T23:12:43.732Z,1.80
2019-05-30T23:15:11.419Z,1.73
2019-05-30T23:17:40.605Z,1.93
2019-05-30T23:20:10.165Z,1.70
2019-05-30T23:22:39.492Z,1.63
2019-05-30T23:25:08.875Z,1.50
2019-05-30T23:27:38.216Z,1.83
2019-05-30T23:30:08.392Z,1.63
2019-05-30T23:32:37.591Z,1.80
2019-05-30T23:35:08.208Z,1.80
2019-05-30T23:37:37.452Z,1.80
2019-05-30T23:40:07.564Z,1.80
2019-05-30T23:42:36.861Z,1.70
2019-05-30T23:45:06.825Z,1.73
2019-05-30T23:47:36.075Z,1.83
2019-05-30T23:50:05.477Z,1.73
2019-05-30T23:52:35.056Z,1.83
2019-05-30T23:55:04.676Z,1.70
2019-05-30T23:57:33.904Z,1.97
